Time;durP1;ratioP1;P1;durP2;ratioP2;P2;SDS_P1;SDS_P2;PMS_P1;PMS_P2;Temp;Humidity;BMP_temperature;BMP_pressure;BME280_temperature;BME280_humidity;BME280_pressure;Samples;Min_cycle;Max_cycle;Signal;HPM_P1;HPM_P2
2023/09/04 00:01:55;;;;;;;2.83;2.58;;;17.50;1.00;;;;;;5214417;28;20048;-63
2023/09/04 00:04:30;;;;;;;3.75;3.15;;;17.50;1.00;;;;;;5222388;28;20044;-65
2023/09/04 00:07:06;;;;;;;3.65;3.08;;;17.40;1.00;;;;;;5240239;28;20041;-63
2023/09/04 00:09:42;;;;;;;4.00;2.85;;;17.40;1.00;;;;;;5207571;28;20067;-65
2023/09/04 00:12:13;;;;;;;4.25;3.42;;;17.50;1.00;;;;;;5222837;28;20028;-63
2023/09/04 00:14:44;;;;;;;3.30;2.88;;;17.40;1.00;;;;;;5242863;28;20029;-62
2023/09/04 00:17:17;;;;;;;3.00;2.70;;;17.40;1.00;;;;;;5244933;28;20032;-61
2023/09/04 00:19:53;;;;;;;6.63;3.40;;;17.30;1.00;;;;;;5234602;28;20040;-66
2023/09/04 00:22:27;;;;;;;4.65;3.30;;;17.30;1.00;;;;;;5242778;28;20216;-60
2023/09/04 00:24:58;;;;;;;3.28;2.58;;;17.30;1.00;;;;;;5207425;28;20032;-65
2023/09/04 00:27:29;;;;;;;3.45;3.13;;;17.20;1.00;;;;;;5241746;28;20039;-64
2023/09/04 00:30:03;;;;;;;3.83;3.05;;;17.20;1.00;;;;;;5227645;28;20040;-64
2023/09/04 00:32:38;;;;;;;3.40;2.80;;;17.10;1.00;;;;;;5220301;28;20042;-63
2023/09/04 00:35:12;;;;;;;3.67;2.97;;;17.10;1.00;;;;;;5243415;28;20051;-65
2023/09/04 00:37:46;;;;;;;;;;;17.00;1.00;;;;;;5208333;28;20051;-62
2023/09/04 00:40:18;;;;;;;3.33;2.83;;;17.00;1.00;;;;;;5222524;28;19913;-63
2023/09/04 00:42:49;;;;;;;4.75;3.03;;;17.00;1.00;;;;;;5247880;28;20030;-63
2023/09/04 00:45:20;;;;;;;4.30;3.38;;;17.00;1.00;;;;;;5219454;28;20037;-61
2023/09/04 00:47:57;;;;;;;3.83;3.08;;;17.00;1.00;;;;;;5234722;28;20044;-65
2023/09/04 00:50:30;;;;;;;3.40;3.10;;;17.00;1.00;;;;;;5246978;28;20499;-66
2023/09/04 00:53:11;;;;;;;5.45;3.28;;;17.10;1.00;;;;;;5234898;28;20033;-64
2023/09/04 00:55:47;;;;;;;3.60;3.03;;;17.00;1.00;;;;;;5222470;28;20656;-63
2023/09/04 00:58:18;;;;;;;3.63;2.80;;;17.10;1.00;;;;;;5241078;28;20042;-64
2023/09/04 01:03:41;;;;;;;5.10;2.63;;;17.10;1.00;;;;;;5252365;28;20044;-64
2023/09/04 01:06:13;;;;;;;3.80;2.80;;;17.00;1.00;;;;;;5259791;28;20042;-65
2023/09/04 01:08:44;;;;;;;3.80;2.45;;;17.00;1.00;;;;;;5226320;28;20043;-63
2023/09/04 01:11:48;;;;;;;3.80;3.10;;;17.00;1.00;;;;;;5224655;28;20050;-62
2023/09/04 01:14:23;;;;;;;3.33;2.80;;;17.00;1.00;;;;;;5222361;28;20052;-63
2023/09/04 01:16:55;;;;;;;4.60;2.88;;;17.00;1.00;;;;;;5252457;28;20020;-64
2023/09/04 01:19:29;;;;;;;3.22;2.80;;;16.90;1.00;;;;;;5226549;28;20032;-61
2023/09/04 01:22:00;;;;;;;3.75;3.20;;;16.90;1.00;;;;;;5224265;28;20040;-64
2023/09/04 01:24:31;;;;;;;4.47;3.35;;;16.90;1.00;;;;;;5260849;28;20220;-62
2023/09/04 01:27:30;;;;;;;5.90;3.25;;;16.80;1.00;;;;;;5261688;28;20016;-62
2023/09/04 01:30:28;;;;;;;4.28;2.92;;;16.80;1.00;;;;;;5223093;28;20025;-63
2023/09/04 01:33:04;;;;;;;4.20;3.35;;;16.80;1.00;;;;;;5237850;28;20559;-64
2023/09/04 01:35:38;;;;;;;2.60;2.40;;;16.70;1.00;;;;;;5225963;28;20028;-64
2023/09/04 01:38:09;;;;;;;3.80;3.33;;;16.60;1.00;;;;;;5227240;28;20063;-64
2023/09/04 01:40:43;;;;;;;3.75;2.90;;;16.60;1.00;;;;;;5225266;28;20046;-63
2023/09/04 01:43:17;;;;;;;3.67;3.15;;;16.50;1.00;;;;;;5225190;28;20346;-64
2023/09/04 01:45:48;;;;;;;4.10;2.90;;;16.50;1.00;;;;;;5222433;28;20362;-63
2023/09/04 01:48:26;;;;;;;3.60;3.30;;;16.40;1.00;;;;;;5226055;28;20046;-64
2023/09/04 01:50:57;;;;;;;3.60;2.83;;;16.40;1.00;;;;;;5241588;28;20035;-65
2023/09/04 01:53:28;;;;;;;3.70;3.30;;;16.40;1.00;;;;;;5224550;28;20036;-62
2023/09/04 01:56:02;;;;;;;3.63;3.20;;;16.40;1.00;;;;;;5225252;28;20038;-62
2023/09/04 01:58:35;;;;;;;4.00;3.53;;;16.40;1.00;;;;;;5224037;28;20042;-65
2023/09/04 02:01:06;;;;;;;5.30;3.38;;;16.50;1.00;;;;;;5223219;28;20042;-62
2023/09/04 02:03:38;;;;;;;5.40;3.35;;;16.50;1.00;;;;;;5203505;28;20070;-62
2023/09/04 02:06:12;;;;;;;3.15;2.80;;;16.50;1.00;;;;;;5203835;28;20036;-62
2023/09/04 02:08:46;;;;;;;3.65;3.25;;;16.40;1.00;;;;;;5221946;28;20052;-61
2023/09/04 02:11:17;;;;;;;9.35;3.15;;;16.40;1.00;;;;;;5204714;28;20039;-64
2023/09/04 02:13:56;;;;;;;4.43;3.33;;;16.40;1.00;;;;;;5234434;28;20048;-63
2023/09/04 02:16:29;;;;;;;4.68;3.38;;;16.40;1.00;;;;;;5206662;28;20035;-63
2023/09/04 02:19:03;;;;;;;3.10;2.80;;;16.40;1.00;;;;;;5224046;28;20036;-63
2023/09/04 02:21:36;;;;;;;4.32;3.50;;;16.40;1.00;;;;;;5223640;28;20046;-64
2023/09/04 02:24:08;;;;;;;3.60;2.92;;;16.40;1.00;;;;;;5224036;28;20395;-63
2023/09/04 02:26:41;;;;;;;3.30;2.95;;;16.40;1.00;;;;;;5260545;28;20032;-64
2023/09/04 02:29:17;;;;;;;4.63;3.40;;;16.40;1.00;;;;;;5220756;28;20058;-62
2023/09/04 02:31:48;;;;;;;3.35;2.90;;;16.30;1.00;;;;;;5218466;28;20039;-64
2023/09/04 02:34:23;;;;;;;4.57;3.35;;;16.20;1.00;;;;;;5217023;28;20051;-63
2023/09/04 02:36:59;;;;;;;;;;;16.00;1.00;;;;;;5225139;28;20035;-63
2023/09/04 02:39:30;;;;;;;3.83;2.97;;;16.00;1.00;;;;;;5223934;28;19908;-63
2023/09/04 02:42:02;;;;;;;3.97;3.30;;;15.90;1.00;;;;;;5224150;28;20185;-62
2023/09/04 02:44:33;;;;;;;3.50;3.10;;;15.90;1.00;;;;;;5248661;28;20040;-62
2023/09/04 02:47:07;;;;;;;5.75;3.15;;;15.80;1.00;;;;;;5219339;28;20040;-64
2023/09/04 02:49:39;;;;;;;3.95;3.40;;;15.80;1.00;;;;;;5207809;28;20044;-63
2023/09/04 02:52:11;;;;;;;3.55;3.20;;;15.70;1.00;;;;;;5211577;28;20032;-64
2023/09/04 02:54:45;;;;;;;3.90;3.50;;;15.70;1.00;;;;;;5228779;28;20032;-63
2023/09/04 02:57:16;;;;;;;3.50;3.20;;;15.60;1.00;;;;;;5241733;28;20036;-63
2023/09/04 02:59:47;;;;;;;3.72;3.35;;;15.60;1.00;;;;;;5208249;28;20020;-63
2023/09/04 03:02:18;;;;;;;5.78;3.38;;;15.70;1.00;;;;;;5242654;28;20040;-61
2023/09/04 03:04:54;;;;;;;4.97;3.35;;;15.70;1.00;;;;;;5248959;28;20059;-62
2023/09/04 03:07:26;;;;;;;3.60;2.60;;;15.70;1.00;;;;;;5224671;28;20050;-63
2023/09/04 03:10:02;;;;;;;3.47;3.03;;;15.60;1.00;;;;;;5223822;28;20036;-62
2023/09/04 03:12:35;;;;;;;3.30;3.00;;;15.70;1.00;;;;;;5240359;28;20036;-63
2023/09/04 03:15:09;;;;;;;3.35;3.05;;;15.60;1.00;;;;;;5224556;28;20047;-64
2023/09/04 03:17:40;;;;;;;5.65;3.45;;;15.60;1.00;;;;;;5222423;28;20027;-60
2023/09/04 03:20:19;;;;;;;4.22;3.53;;;15.60;1.00;;;;;;5224978;28;20024;-62
2023/09/04 03:22:50;;;;;;;6.57;3.75;;;15.60;1.00;;;;;;5227816;28;20043;-63
2023/09/04 03:25:22;;;;;;;4.15;3.75;;;15.60;1.00;;;;;;5221670;28;20047;-64
2023/09/04 03:27:57;;;;;;;6.60;3.50;;;15.60;1.00;;;;;;5226853;28;20366;-63
2023/09/04 03:30:29;;;;;;;4.22;3.60;;;15.60;1.00;;;;;;5223434;28;20628;-62
2023/09/04 03:33:03;;;;;;;4.65;3.47;;;15.50;1.00;;;;;;5237633;28;20024;-61
2023/09/04 03:35:39;;;;;;;4.03;3.17;;;15.40;1.00;;;;;;5201763;28;20063;-62
2023/09/04 03:38:10;;;;;;;4.07;3.03;;;15.40;1.00;;;;;;5204062;28;20035;-63
2023/09/04 03:40:41;;;;;;;3.60;3.15;;;15.40;1.00;;;;;;5220919;28;20044;-63
2023/09/04 03:43:13;;;;;;;4.13;3.42;;;15.40;1.00;;;;;;5221690;28;20038;-62
2023/09/04 03:45:46;;;;;;;4.15;2.80;;;15.30;1.00;;;;;;5260319;28;20545;-65
2023/09/04 03:48:17;;;;;;;5.32;3.50;;;15.30;1.00;;;;;;5228367;28;20488;-64
2023/09/04 03:50:51;;;;;;;4.10;3.42;;;15.30;1.00;;;;;;5261700;28;20040;-62
2023/09/04 03:53:27;;;;;;;6.85;4.40;;;15.30;1.00;;;;;;5224006;28;20039;-63
2023/09/04 03:56:04;;;;;;;4.68;3.90;;;15.40;1.00;;;;;;5242253;28;20040;-62
2023/09/04 03:58:37;;;;;;;3.78;3.15;;;15.40;1.00;;;;;;5218973;28;20227;-64
2023/09/04 04:01:11;;;;;;;3.97;3.30;;;15.40;1.00;;;;;;5259591;28;20036;-62
2023/09/04 04:03:42;;;;;;;5.57;3.55;;;15.30;1.00;;;;;;5224724;28;20035;-63
2023/09/04 04:06:14;;;;;;;4.75;3.38;;;15.30;1.00;;;;;;5263737;28;20035;-62
2023/09/04 04:08:54;;;;;;;3.08;2.78;;;15.30;1.00;;;;;;5228211;28;20040;-63
2023/09/04 04:11:27;;;;;;;3.75;3.33;;;15.20;1.00;;;;;;5223050;28;20025;-61
2023/09/04 04:14:00;;;;;;;4.47;3.40;;;15.30;1.00;;;;;;5220161;28;20062;-61
2023/09/04 04:16:36;;;;;;;3.30;3.00;;;15.20;1.00;;;;;;5223936;28;20040;-61
2023/09/04 04:19:10;;;;;;;3.90;3.28;;;15.30;1.00;;;;;;5262618;28;20036;-60
2023/09/04 04:21:41;;;;;;;4.40;3.28;;;15.20;22.20;;;;;;5227292;28;20036;-61
2023/09/04 04:24:13;;;;;;;5.50;3.58;;;15.10;46.60;;;;;;5237929;28;20043;-61
2023/09/04 04:26:45;;;;;;;6.95;3.42;;;15.10;49.80;;;;;;5244466;28;20032;-63
2023/09/04 04:29:20;;;;;;;3.72;3.13;;;15.10;92.10;;;;;;5244526;28;20032;-63
2023/09/04 04:31:52;;;;;;;3.60;3.30;;;14.90;99.90;;;;;;5221365;28;20059;-64
2023/09/04 04:34:23;;;;;;;3.17;2.88;;;14.90;99.90;;;;;;5217675;28;20042;-62
2023/09/04 04:36:56;;;;;;;5.38;2.83;;;15.00;70.70;;;;;;5243672;28;20034;-64
2023/09/04 04:39:30;;;;;;;4.93;3.30;;;15.00;35.20;;;;;;5227591;28;20042;-63
2023/09/04 04:42:02;;;;;;;4.15;3.40;;;15.00;27.10;;;;;;5262754;28;20028;-62
2023/09/04 04:44:36;;;;;;;3.72;2.92;;;15.00;18.30;;;;;;5241442;28;20028;-63
2023/09/04 04:47:13;;;;;;;3.83;3.50;;;15.00;23.10;;;;;;5226089;28;20028;-63
2023/09/04 04:49:47;;;;;;;3.28;2.50;;;14.90;10.90;;;;;;5227064;28;20044;-60
2023/09/04 04:52:18;;;;;;;3.67;3.00;;;14.90;13.30;;;;;;5227742;28;20205;-63
2023/09/04 04:54:49;;;;;;;3.17;2.58;;;15.00;1.00;;;;;;5240096;28;20301;-63
2023/09/04 04:57:20;;;;;;;4.05;2.60;;;14.90;1.00;;;;;;5257458;28;20032;-62
2023/09/04 04:59:54;;;;;;;5.22;3.40;;;15.00;1.00;;;;;;5261013;28;20040;-60
2023/09/04 05:02:25;;;;;;;3.20;2.90;;;15.00;1.00;;;;;;5229107;28;20048;-61
2023/09/04 05:04:59;;;;;;;4.57;2.38;;;15.10;1.00;;;;;;5223505;28;20040;-61
2023/09/04 05:07:32;;;;;;;3.45;3.15;;;15.20;1.00;;;;;;5244217;28;20050;-64
2023/09/04 05:10:04;;;;;;;4.13;3.03;;;15.10;1.00;;;;;;5208373;28;20040;-61
2023/09/04 05:12:35;;;;;;;4.57;2.28;;;15.20;1.00;;;;;;5226452;28;20035;-64
2023/09/04 05:15:07;;;;;;;3.42;2.60;;;15.20;1.00;;;;;;5239185;28;20038;-64
2023/09/04 05:17:38;;;;;;;3.55;2.60;;;15.20;1.00;;;;;;5225092;28;20069;-63
2023/09/04 05:20:12;;;;;;;8.38;2.80;;;15.30;1.00;;;;;;5243981;28;20034;-62
2023/09/04 05:22:43;;;;;;;10.63;2.70;;;15.40;1.00;;;;;;5226717;28;20035;-62
2023/09/04 05:25:14;;;;;;;2.90;2.22;;;15.50;1.00;;;;;;5234914;28;20646;-62
2023/09/04 05:27:48;;;;;;;2.97;2.67;;;15.60;1.00;;;;;;5244048;28;20038;-64
2023/09/04 05:30:19;;;;;;;4.05;2.83;;;15.70;1.00;;;;;;5259010;28;20062;-63
2023/09/04 05:32:56;;;;;;;3.75;2.55;;;15.80;1.00;;;;;;5243034;28;20040;-62
2023/09/04 05:35:27;;;;;;;2.53;2.17;;;15.80;1.00;;;;;;5240176;28;20040;-65
2023/09/04 05:37:59;;;;;;;3.22;2.85;;;15.90;1.00;;;;;;5243631;28;20036;-65
2023/09/04 05:40:30;;;;;;;3.70;2.70;;;16.00;1.00;;;;;;5261702;28;20028;-63
2023/09/04 05:43:01;;;;;;;2.60;2.08;;;16.10;1.00;;;;;;5240525;28;20407;-61
2023/09/04 05:45:35;;;;;;;2.60;2.40;;;16.10;1.00;;;;;;5258096;28;20062;-63
2023/09/04 05:48:06;;;;;;;3.00;2.67;;;16.20;1.00;;;;;;5226884;28;20034;-65
2023/09/04 05:50:38;;;;;;;2.72;2.42;;;16.20;1.00;;;;;;5240883;28;20038;-64
2023/09/04 05:53:09;;;;;;;5.45;2.75;;;16.30;1.00;;;;;;5259812;28;20195;-62
2023/09/04 05:55:43;;;;;;;3.30;2.70;;;16.30;1.00;;;;;;5224445;28;20367;-65
2023/09/04 05:58:14;;;;;;;2.95;2.22;;;16.30;1.00;;;;;;5226207;28;20040;-62
2023/09/04 06:00:45;;;;;;;5.90;3.22;;;16.40;1.00;;;;;;5238885;28;20024;-63
2023/09/04 06:03:16;;;;;;;2.50;2.30;;;16.50;1.00;;;;;;5259291;28;20028;-64
2023/09/04 06:05:48;;;;;;;3.05;2.25;;;16.50;1.00;;;;;;5224084;28;20027;-65
2023/09/04 06:08:21;;;;;;;2.63;2.42;;;16.60;1.00;;;;;;5225131;28;20036;-63
2023/09/04 06:11:05;;;;;;;2.45;2.25;;;16.60;1.00;;;;;;5217380;28;20047;-62
2023/09/04 06:13:36;;;;;;;2.25;1.90;;;16.60;1.00;;;;;;5219176;28;20040;-63
2023/09/04 06:16:07;;;;;;;2.40;2.20;;;16.60;1.00;;;;;;5239262;28;20035;-64
2023/09/04 06:18:38;;;;;;;3.50;2.30;;;16.60;1.00;;;;;;5228102;28;20081;-65
2023/09/04 06:21:10;;;;;;;2.53;2.33;;;16.60;1.00;;;;;;5258492;28;20036;-65
2023/09/04 06:23:44;;;;;;;3.40;2.28;;;16.70;1.00;;;;;;5259686;28;20032;-60
2023/09/04 06:26:16;;;;;;;3.22;2.35;;;16.70;1.00;;;;;;5241330;28;20036;-64
2023/09/04 06:28:47;;;;;;;2.45;2.25;;;16.70;1.00;;;;;;5223387;28;20024;-64
2023/09/04 06:31:21;;;;;;;4.28;2.20;;;16.80;1.00;;;;;;5225102;28;20042;-65
2023/09/04 06:33:55;;;;;;;3.10;2.42;;;16.80;1.00;;;;;;5258755;28;20364;-63
2023/09/04 06:36:26;;;;;;;2.75;2.42;;;16.80;1.00;;;;;;5208550;28;20065;-64
2023/09/04 06:38:58;;;;;;;2.30;2.10;;;17.00;1.00;;;;;;5245490;28;20027;-63
2023/09/04 06:41:32;;;;;;;3.17;2.42;;;17.00;1.00;;;;;;5241359;28;20050;-63
2023/09/04 06:44:03;;;;;;;3.50;2.30;;;17.10;1.00;;;;;;5244825;28;20546;-65
2023/09/04 06:46:34;;;;;;;3.88;2.22;;;17.10;1.00;;;;;;5220531;28;20352;-64
2023/09/04 06:49:08;;;;;;;3.65;2.17;;;17.10;1.00;;;;;;5255796;28;20392;-63
2023/09/04 06:51:40;;;;;;;2.50;2.28;;;17.10;1.00;;;;;;5224006;28;20533;-66
2023/09/04 06:54:14;;;;;;;2.13;1.92;;;17.30;1.00;;;;;;5214081;28;20487;-64
2023/09/04 06:56:47;;;;;;;2.45;2.25;;;17.30;1.00;;;;;;5245149;28;20571;-63
2023/09/04 06:59:19;;;;;;;3.03;2.08;;;17.50;1.00;;;;;;5257338;28;20042;-66
2023/09/04 07:01:50;;;;;;;2.35;2.03;;;17.60;1.00;;;;;;5224450;28;20040;-64
2023/09/04 07:04:22;;;;;;;2.10;1.90;;;17.60;1.00;;;;;;5238301;28;20036;-65
2023/09/04 07:06:55;;;;;;;2.20;2.00;;;17.80;1.00;;;;;;5258757;28;20212;-63
2023/09/04 07:09:34;;;;;;;4.13;2.20;;;17.80;1.00;;;;;;5225243;28;20358;-63
2023/09/04 07:12:07;;;;;;;2.47;2.28;;;17.50;1.00;;;;;;5242083;28;20042;-61
2023/09/04 07:14:40;;;;;;;2.00;1.90;;;17.50;1.00;;;;;;5224275;28;20024;-61
2023/09/04 07:17:17;;;;;;;3.53;2.37;;;17.80;1.00;;;;;;5222519;28;20042;-64
2023/09/04 07:19:50;;;;;;;2.20;2.00;;;18.00;1.00;;;;;;5260407;28;20382;-62
2023/09/04 07:22:24;;;;;;;2.17;1.97;;;18.00;1.00;;;;;;5228817;28;20028;-62
2023/09/04 07:24:55;;;;;;;2.97;2.08;;;18.10;1.00;;;;;;5228326;28;20261;-61
2023/09/04 07:27:29;;;;;;;2.50;1.88;;;18.50;1.00;;;;;;5227564;28;20036;-64
2023/09/04 07:30:02;;;;;;;2.85;2.10;;;18.50;1.00;;;;;;5229543;28;20249;-62
2023/09/04 07:32:36;;;;;;;2.67;1.80;;;18.40;1.00;;;;;;5241294;28;20050;-63
2023/09/04 07:35:08;;;;;;;2.57;2.07;;;18.50;1.00;;;;;;5263598;28;20627;-65
2023/09/04 07:37:39;;;;;;;1.95;1.85;;;18.30;1.00;;;;;;5228739;28;20028;-63
2023/09/04 07:40:11;;;;;;;2.17;1.90;;;18.40;1.00;;;;;;5243478;28;20047;-63
2023/09/04 07:42:43;;;;;;;2.67;1.80;;;18.30;1.00;;;;;;5219481;28;20321;-62
2023/09/04 07:45:17;;;;;;;2.30;1.73;;;18.40;1.00;;;;;;5221777;28;20240;-64
2023/09/04 07:47:51;;;;;;;2.65;1.77;;;18.30;1.00;;;;;;5223180;28;20564;-61
2023/09/04 07:50:28;;;;;;;2.28;2.00;;;18.50;1.00;;;;;;5254370;28;20039;-64
2023/09/04 07:52:59;;;;;;;3.17;1.80;;;18.30;1.00;;;;;;5244103;28;20042;-64
2023/09/04 07:55:32;;;;;;;2.35;2.00;;;18.40;1.00;;;;;;5263315;28;20030;-62
2023/09/04 07:58:04;;;;;;;1.73;1.63;;;18.60;1.00;;;;;;5227019;28;20042;-64
2023/09/04 08:00:36;;;;;;;2.10;1.83;;;18.80;1.00;;;;;;5259403;28;20042;-64
2023/09/04 08:03:13;;;;;;;1.80;1.70;;;18.70;1.00;;;;;;5257977;28;20032;-64
2023/09/04 08:05:47;;;;;;;1.92;1.73;;;18.50;1.00;;;;;;5250608;28;20050;-64
2023/09/04 08:08:19;;;;;;;3.65;1.98;;;18.80;1.00;;;;;;5224993;28;20036;-62
2023/09/04 08:10:51;;;;;;;2.15;1.85;;;18.50;1.00;;;;;;5228120;28;20439;-63
2023/09/04 08:13:22;;;;;;;1.90;1.60;;;18.40;1.00;;;;;;5227984;28;20074;-62
2023/09/04 08:15:59;;;;;;;2.00;1.80;;;18.90;1.00;;;;;;5224845;28;20534;-63
2023/09/04 08:18:32;;;;;;;2.20;2.00;;;18.90;1.00;;;;;;5228440;28;20026;-64
2023/09/04 08:21:06;;;;;;;2.55;2.35;;;19.30;1.00;;;;;;5243595;28;20354;-63
2023/09/04 08:23:37;;;;;;;2.05;1.85;;;19.40;1.00;;;;;;5227908;28;20036;-65
2023/09/04 08:26:12;;;;;;;2.45;1.55;;;19.10;1.00;;;;;;5228012;28;20024;-61
2023/09/04 08:28:43;;;;;;;2.30;1.40;;;19.60;1.00;;;;;;5226269;28;20415;-64
2023/09/04 08:31:20;;;;;;;2.28;2.08;;;19.70;1.00;;;;;;5259390;28;20028;-64
2023/09/04 08:33:51;;;;;;;1.70;1.58;;;19.50;1.00;;;;;;5226810;28;20035;-65
2023/09/04 08:36:28;;;;;;;1.98;1.80;;;19.90;1.00;;;;;;5243616;28;20036;-62
2023/09/04 08:38:59;;;;;;;3.35;1.90;;;20.30;1.00;;;;;;5244397;28;20024;-65
2023/09/04 08:41:38;;;;;;;2.25;1.80;;;20.30;1.00;;;;;;5243105;28;20976;-65
2023/09/04 08:44:10;;;;;;;2.45;1.80;;;20.10;1.00;;;;;;5241784;28;20038;-65
2023/09/04 08:46:46;;;;;;;2.10;1.80;;;19.80;1.00;;;;;;5220807;28;20047;-66
2023/09/04 08:49:20;;;;;;;3.17;1.90;;;20.20;1.00;;;;;;5207023;28;20040;-65
2023/09/04 08:51:55;;;;;;;1.80;1.58;;;21.00;1.00;;;;;;5227737;28;20039;-63
2023/09/04 08:54:26;;;;;;;;;;;20.50;1.00;;;;;;5227024;28;20066;-63
2023/09/04 08:56:57;;;;;;;2.22;1.67;;;20.60;1.00;;;;;;5261589;28;20337;-64
2023/09/04 08:59:28;;;;;;;2.22;1.65;;;20.70;1.00;;;;;;5243431;28;20106;-62
2023/09/04 09:02:04;;;;;;;2.15;1.60;;;20.90;1.00;;;;;;5224206;28;20320;-65
2023/09/04 09:04:39;;;;;;;4.03;1.77;;;20.50;1.00;;;;;;5226858;28;20038;-64
2023/09/04 09:07:12;;;;;;;2.08;1.88;;;20.10;1.00;;;;;;5226339;28;20035;-64
2023/09/04 09:09:50;;;;;;;3.03;1.80;;;20.10;1.00;;;;;;5243815;28;20365;-65
2023/09/04 09:12:21;;;;;;;2.05;1.50;;;19.80;1.00;;;;;;5226703;28;20032;-64
2023/09/04 09:14:58;;;;;;;3.67;2.00;;;19.70;1.00;;;;;;5240234;28;20032;-63
2023/09/04 09:17:29;;;;;;;1.92;1.83;;;20.20;1.00;;;;;;5230812;28;20036;-64
2023/09/04 09:20:03;;;;;;;1.80;1.70;;;20.40;1.00;;;;;;5243129;28;20035;-65
2023/09/04 09:22:34;;;;;;;2.30;2.10;;;20.80;1.00;;;;;;5226273;28;20046;-65
2023/09/04 09:25:09;;;;;;;1.88;1.77;;;20.30;1.00;;;;;;5243676;28;20454;-62
2023/09/04 09:27:44;;;;;;;2.35;1.52;;;20.80;1.00;;;;;;5226844;28;20481;-63
2023/09/04 09:30:15;;;;;;;2.00;1.90;;;21.30;1.00;;;;;;5241102;28;20036;-65
2023/09/04 09:32:47;;;;;;;3.72;1.55;;;22.10;1.00;;;;;;5226545;28;20453;-65
2023/09/04 09:35:24;;;;;;;1.35;1.25;;;22.20;1.00;;;;;;5243078;28;20040;-65
2023/09/04 09:37:58;;;;;;;2.20;1.70;;;21.70;1.00;;;;;;5260996;28;20471;-63
2023/09/04 09:40:29;;;;;;;1.52;1.42;;;22.20;1.00;;;;;;5223392;28;20487;-66
2023/09/04 09:43:04;;;;;;;1.50;1.40;;;21.90;1.00;;;;;;5224950;28;20024;-66
2023/09/04 09:45:35;;;;;;;2.47;1.70;;;22.20;1.00;;;;;;5223563;28;20034;-62
2023/09/04 09:48:08;;;;;;;3.92;1.98;;;22.30;1.00;;;;;;5225799;28;20583;-65
2023/09/04 09:50:42;;;;;;;2.80;1.65;;;22.20;1.00;;;;;;5242726;28;20035;-62
2023/09/04 09:53:13;;;;;;;1.60;1.40;;;23.00;1.00;;;;;;5227076;28;20488;-64
2023/09/04 09:55:48;;;;;;;1.58;1.48;;;23.60;1.00;;;;;;5260427;28;20028;-65
2023/09/04 09:58:20;;;;;;;4.43;1.48;;;23.10;1.00;;;;;;5242118;28;20046;-65
2023/09/04 10:00:51;;;;;;;1.90;1.50;;;22.40;1.00;;;;;;5222321;28;20044;-61
2023/09/04 10:03:22;;;;;;;1.88;1.50;;;22.40;23.10;;;;;;5262322;28;20036;-63
2023/09/04 10:05:54;;;;;;;1.92;1.48;;;22.90;99.90;;;;;;5261666;28;20229;-64
2023/09/04 10:08:28;;;;;;;1.92;1.30;;;22.70;99.90;;;;;;5225687;28;20085;-62
2023/09/04 10:11:06;;;;;;;1.75;1.50;;;22.70;1.00;;;;;;5226102;28;20054;-62
2023/09/04 10:13:50;;;;;;;1.70;1.45;;;22.10;99.90;;;;;;5242117;28;20275;-63
2023/09/04 10:16:31;;;;;;;1.67;1.45;;;22.10;1.00;;;;;;5222450;28;20226;-62
2023/09/04 10:19:07;;;;;;;1.83;1.38;;;22.30;1.00;;;;;;5222251;28;20040;-63
2023/09/04 10:21:47;;;;;;;1.65;1.55;;;23.20;1.00;;;;;;5218928;28;20275;-64
2023/09/04 10:24:28;;;;;;;1.48;1.33;;;23.10;1.00;;;;;;5253869;28;20013;-63
2023/09/04 10:27:09;;;;;;;1.77;1.48;;;22.90;1.00;;;;;;5224412;28;20243;-62
2023/09/04 10:29:54;;;;;;;2.53;1.85;;;23.30;99.90;;;;;;5233962;28;20050;-66
2023/09/04 10:32:27;;;;;;;2.25;1.40;;;23.40;1.00;;;;;;5213281;28;20179;-62
2023/09/04 10:35:01;;;;;;;1.65;1.55;;;24.60;1.00;;;;;;5250985;28;20030;-62
2023/09/04 10:37:37;;;;;;;1.70;1.23;;;25.50;58.10;;;;;;5252622;28;20040;-60
2023/09/04 10:40:11;;;;;;;2.17;1.38;;;25.00;99.90;;;;;;5257021;28;20044;-66
2023/09/04 10:42:47;;;;;;;1.40;1.30;;;24.40;99.90;;;;;;5225094;28;20325;-65
2023/09/04 10:45:19;;;;;;;3.95;1.30;;;23.00;99.90;;;;;;5240206;28;20213;-65
2023/09/04 10:47:51;;;;;;;1.50;1.33;;;23.80;99.90;;;;;;5233553;28;20031;-64
2023/09/04 10:50:30;;;;;;;2.75;1.55;;;24.20;1.00;;;;;;5232835;28;20375;-64
2023/09/04 10:53:04;;;;;;;1.42;1.25;;;23.90;1.00;;;;;;5224166;28;20047;-63
2023/09/04 10:55:36;;;;;;;;;;;24.30;1.00;;;;;;5223311;28;20096;-65
2023/09/04 10:58:08;;;;;;;1.20;1.08;;;24.50;1.00;;;;;;5256923;28;19982;-66
2023/09/04 11:00:40;;;;;;;1.52;1.15;;;25.70;1.00;;;;;;5213050;28;20512;-65
2023/09/04 11:03:22;;;;;;;1.17;1.08;;;25.50;1.00;;;;;;5232117;28;20032;-62
2023/09/04 11:06:02;;;;;;;2.30;1.52;;;26.00;1.00;;;;;;5204341;28;20021;-64
2023/09/04 11:08:38;;;;;;;1.70;1.20;;;25.50;99.90;;;;;;5216781;28;20565;-63
2023/09/04 11:11:12;;;;;;;2.00;1.25;;;26.50;99.90;;;;;;5220435;28;20040;-65
2023/09/04 11:14:06;;;;;;;1.40;1.20;;;27.60;99.90;;;;;;5221057;28;20489;-64
2023/09/04 11:16:48;;;;;;;1.23;1.10;;;26.40;11.90;;;;;;5246223;28;20038;-63
2023/09/04 11:19:22;;;;;;;4.03;1.80;;;25.80;1.00;;;;;;5255351;28;20027;-64
2023/09/04 11:21:54;;;;;;;3.38;1.27;;;26.00;1.00;;;;;;5215395;28;20035;-63
2023/09/04 11:24:25;;;;;;;1.58;1.20;;;26.70;1.00;;;;;;5233747;28;20036;-65
2023/09/04 11:26:59;;;;;;;1.80;1.30;;;25.40;1.00;;;;;;5252935;28;20485;-65
2023/09/04 11:29:33;;;;;;;3.13;1.15;;;25.70;1.00;;;;;;5216216;28;20024;-65
2023/09/04 11:32:12;;;;;;;1.25;1.08;;;25.20;1.00;;;;;;5252367;28;20031;-66
2023/09/04 11:34:45;;;;;;;1.88;1.20;;;24.60;1.00;;;;;;5216531;28;20050;-66
2023/09/04 11:37:19;;;;;;;2.42;1.27;;;25.80;1.00;;;;;;5220529;28;20028;-62
2023/09/04 11:40:01;;;;;;;1.30;1.20;;;26.80;1.00;;;;;;5218025;28;20059;-64
2023/09/04 11:42:34;;;;;;;1.35;1.25;;;26.90;1.00;;;;;;5217098;28;20373;-64
2023/09/04 11:45:06;;;;;;;1.23;0.90;;;27.20;1.00;;;;;;5222116;28;20030;-66
2023/09/04 11:47:37;;;;;;;2.20;1.40;;;27.80;1.00;;;;;;5277811;28;20346;-62
2023/09/04 11:50:15;;;;;;;1.77;1.30;;;28.60;1.00;;;;;;5259101;28;20036;-65
2023/09/04 11:52:48;;;;;;;1.45;1.10;;;27.00;1.00;;;;;;5218128;28;20035;-66
2023/09/04 11:55:23;;;;;;;3.88;1.20;;;26.70;1.00;;;;;;5236361;28;20028;-64
2023/09/04 11:57:56;;;;;;;2.47;1.52;;;26.20;1.00;;;;;;5222378;28;20040;-62
2023/09/04 12:00:28;;;;;;;1.23;1.10;;;25.90;1.00;;;;;;5217281;28;20043;-65
2023/09/04 12:02:59;;;;;;;1.83;1.13;;;26.80;1.00;;;;;;5221100;28;20498;-61
2023/09/04 12:05:33;;;;;;;1.13;1.02;;;26.70;1.00;;;;;;5217592;28;20536;-66
2023/09/04 12:08:05;;;;;;;1.50;1.40;;;27.00;1.00;;;;;;5259783;28;20028;-66
2023/09/04 12:10:37;;;;;;;2.05;1.52;;;26.00;1.00;;;;;;5255260;28;20292;-67
2023/09/04 12:13:09;;;;;;;2.53;1.27;;;26.00;1.00;;;;;;5223484;28;20032;-65
2023/09/04 12:15:44;;;;;;;2.05;1.27;;;26.50;1.00;;;;;;5216857;28;20036;-64
2023/09/04 12:18:17;;;;;;;1.52;1.27;;;27.30;1.00;;;;;;5254015;28;20054;-63
2023/09/04 12:20:57;;;;;;;1.15;1.05;;;26.80;99.90;;;;;;5224513;28;20070;-64
2023/09/04 12:23:45;;;;;;;1.80;1.08;;;26.30;99.90;;;;;;5240807;28;20032;-64
2023/09/04 12:26:17;;;;;;;2.20;1.20;;;27.10;1.00;;;;;;5259063;28;20039;-65
2023/09/04 12:28:53;;;;;;;1.80;1.30;;;28.10;1.00;;;;;;5208704;28;20028;-67
2023/09/04 12:31:25;;;;;;;1.33;1.05;;;29.20;1.00;;;;;;5220099;28;20039;-62
2023/09/04 12:34:01;;;;;;;1.67;1.30;;;28.20;99.90;;;;;;5255520;28;20996;-62
2023/09/04 12:36:33;;;;;;;1.52;1.30;;;27.50;99.90;;;;;;5232107;28;20035;-61
2023/09/04 12:39:05;;;;;;;3.85;1.42;;;27.00;99.90;;;;;;5222464;28;20032;-66
2023/09/04 12:41:36;;;;;;;1.35;1.25;;;26.20;99.90;;;;;;5239411;28;20040;-65
2023/09/04 12:44:07;;;;;;;1.35;1.10;;;25.20;99.90;;;;;;5224151;28;20031;-64
2023/09/04 12:46:39;;;;;;;1.00;1.00;;;26.00;99.90;;;;;;5237436;28;20038;-62
2023/09/04 12:49:13;;;;;;;2.03;1.35;;;26.30;1.00;;;;;;5257680;28;20035;-64
2023/09/04 12:51:44;;;;;;;1.52;1.17;;;24.90;99.90;;;;;;5229918;28;20055;-64
2023/09/04 12:54:15;;;;;;;1.20;1.10;;;25.30;99.90;;;;;;5222247;28;20198;-62
2023/09/04 12:56:46;;;;;;;1.30;1.20;;;26.40;1.00;;;;;;5234428;28;20030;-64
2023/09/04 12:59:17;;;;;;;1.73;1.20;;;26.80;1.00;;;;;;5221914;28;20016;-64
2023/09/04 13:01:49;;;;;;;3.60;1.25;;;24.80;99.90;;;;;;5253459;28;20046;-64
2023/09/04 13:04:21;;;;;;;1.83;1.27;;;24.60;99.90;;;;;;5219828;28;20032;-63
2023/09/04 13:06:52;;;;;;;1.48;1.20;;;25.40;99.90;;;;;;5222595;28;20040;-65
2023/09/04 13:09:23;;;;;;;1.23;1.13;;;26.80;99.90;;;;;;5222698;28;20043;-63
2023/09/04 13:11:56;;;;;;;1.55;1.17;;;26.30;99.90;;;;;;5257258;28;20149;-64
2023/09/04 13:14:27;;;;;;;2.47;1.30;;;27.00;99.90;;;;;;5258661;28;20016;-64
2023/09/04 13:16:58;;;;;;;2.25;1.40;;;28.20;1.00;;;;;;5218862;28;20036;-63
2023/09/04 13:19:30;;;;;;;1.77;1.02;;;28.70;1.00;;;;;;5258335;28;20035;-67
2023/09/04 13:22:02;;;;;;;2.05;1.10;;;28.70;1.00;;;;;;5223630;28;20039;-64
2023/09/04 13:24:36;;;;;;;2.75;1.10;;;28.60;1.00;;;;;;5222848;28;20051;-66
2023/09/04 13:27:09;;;;;;;1.77;1.25;;;27.40;1.00;;;;;;5239788;28;20016;-65
2023/09/04 13:29:40;;;;;;;1.20;1.10;;;26.60;99.90;;;;;;5223772;28;20374;-64
2023/09/04 13:32:12;;;;;;;1.67;1.58;;;26.90;99.90;;;;;;5255580;28;20027;-69
2023/09/04 13:34:45;;;;;;;1.35;1.00;;;27.90;1.00;;;;;;5221808;28;20039;-66